Time;durP1;ratioP1;P1;durP2;ratioP2;P2;SDS_P1;SDS_P2;PMS_P1;PMS_P2;Temp;Humidity;BMP_temperature;BMP_pressure;BME280_temperature;BME280_humidity;BME280_pressure;Samples;Min_cycle;Max_cycle;Signal;HPM_P1;HPM_P2
2023/04/27 00:00:06;;;;;;;0.70;0.70;;;-0.10;99.90;;;;;;5056478;28;20242;-81
2023/04/27 00:02:32;;;;;;;0.70;0.70;;;-0.20;99.90;;;;;;5055628;28;20225;-81
2023/04/27 00:04:58;;;;;;;0.50;0.50;;;-0.10;99.90;;;;;;5038323;28;20668;-82
2023/04/27 00:07:25;;;;;;;0.60;0.60;;;-0.20;99.90;;;;;;5055616;28;20213;-82
2023/04/27 00:09:50;;;;;;;0.60;0.60;;;-0.20;99.90;;;;;;5039329;28;20197;-82
2023/04/27 00:12:16;;;;;;;0.80;0.80;;;-0.20;99.90;;;;;;5054540;28;20564;-82
2023/04/27 00:14:42;;;;;;;0.80;0.80;;;-0.20;99.90;;;;;;5054246;28;20200;-81
2023/04/27 00:17:07;;;;;;;0.70;0.70;;;-0.30;99.90;;;;;;5055761;28;20198;-81
2023/04/27 00:19:33;;;;;;;0.60;0.60;;;-0.30;99.90;;;;;;5055519;28;20240;-81
2023/04/27 00:21:59;;;;;;;0.70;0.70;;;-0.20;99.90;;;;;;5054424;28;20197;-81
2023/04/27 00:24:25;;;;;;;0.60;0.60;;;-0.20;99.90;;;;;;5046120;28;20688;-81
2023/04/27 00:26:51;;;;;;;0.50;0.50;;;-0.20;99.90;;;;;;5055537;28;20700;-81
2023/04/27 00:29:16;;;;;;;0.60;0.60;;;-0.20;99.90;;;;;;5037532;28;20607;-81
2023/04/27 00:31:42;;;;;;;0.55;0.55;;;-0.30;99.90;;;;;;5055310;28;20242;-80
2023/04/27 00:34:08;;;;;;;0.60;0.60;;;-0.20;99.90;;;;;;5055549;28;20200;-80
2023/04/27 00:36:34;;;;;;;0.60;0.60;;;-0.20;99.90;;;;;;5036664;28;20564;-80
2023/04/27 00:38:59;;;;;;;0.63;0.63;;;-0.20;99.90;;;;;;5042737;28;20281;-80
2023/04/27 00:41:25;;;;;;;0.70;0.70;;;-0.30;99.90;;;;;;5055657;28;20273;-80
2023/04/27 00:43:51;;;;;;;0.70;0.70;;;-0.30;99.90;;;;;;5055254;28;20197;-80
2023/04/27 00:46:18;;;;;;;0.80;0.80;;;-0.30;99.90;;;;;;5037214;28;20563;-80
2023/04/27 00:48:44;;;;;;;0.65;0.65;;;-0.40;99.90;;;;;;5037592;28;20202;-80
2023/04/27 00:51:10;;;;;;;0.77;0.77;;;-0.40;99.90;;;;;;5036948;28;20280;-80
2023/04/27 00:53:37;;;;;;;0.80;0.80;;;-0.40;99.90;;;;;;5054934;28;20224;-80
2023/04/27 00:56:05;;;;;;;0.70;0.70;;;-0.40;99.90;;;;;;5054452;28;20201;-80
2023/04/27 00:58:31;;;;;;;0.70;0.70;;;-0.40;99.90;;;;;;5035985;28;20292;-80
2023/04/27 01:00:58;;;;;;;0.65;0.65;;;-0.40;99.90;;;;;;5054822;28;20189;-81
2023/04/27 01:03:25;;;;;;;0.75;0.75;;;-0.30;99.90;;;;;;5052639;28;20236;-81
2023/04/27 01:05:50;;;;;;;0.70;0.70;;;-0.30;99.90;;;;;;5049554;28;20506;-80
2023/04/27 01:08:16;;;;;;;0.70;0.70;;;-0.40;99.90;;;;;;5035156;28;20217;-80
2023/04/27 01:10:42;;;;;;;0.60;0.60;;;-0.50;99.90;;;;;;5034859;28;20194;-80
2023/04/27 01:13:09;;;;;;;0.70;0.70;;;-0.40;99.90;;;;;;5034767;28;20684;-79
2023/04/27 01:15:35;;;;;;;0.65;0.65;;;-0.50;99.90;;;;;;5034654;28;20186;-80
2023/04/27 01:18:01;;;;;;;0.65;0.65;;;-0.50;99.90;;;;;;5017241;28;20612;-80
2023/04/27 01:20:29;;;;;;;0.50;0.50;;;-0.50;99.90;;;;;;5042742;28;20193;-82
2023/04/27 01:22:58;;;;;;;0.60;0.60;;;-0.60;99.90;;;;;;5054750;28;20197;-81
2023/04/27 01:25:24;;;;;;;0.60;0.60;;;-0.60;99.90;;;;;;5036748;28;20693;-81
2023/04/27 01:27:50;;;;;;;0.70;0.70;;;-0.60;99.90;;;;;;5054558;28;20217;-81
2023/04/27 01:30:16;;;;;;;0.65;0.65;;;-0.60;99.90;;;;;;5054011;28;20186;-80
2023/04/27 01:32:42;;;;;;;0.68;0.68;;;-0.60;99.90;;;;;;5035850;28;20311;-81
2023/04/27 01:35:08;;;;;;;0.52;0.52;;;-0.60;99.90;;;;;;5036033;28;20391;-80
2023/04/27 01:37:34;;;;;;;0.60;0.60;;;-0.70;99.90;;;;;;5036375;28;20208;-80
2023/04/27 01:40:00;;;;;;;0.65;0.65;;;-0.70;99.90;;;;;;5054240;28;20686;-80
2023/04/27 01:42:26;;;;;;;0.77;0.77;;;-0.80;99.90;;;;;;5036265;28;20193;-81
2023/04/27 01:44:51;;;;;;;0.65;0.65;;;-0.80;99.90;;;;;;5054268;28;20244;-81
2023/04/27 01:47:17;;;;;;;0.50;0.50;;;-0.80;99.90;;;;;;5053923;28;20193;-80
2023/04/27 01:49:43;;;;;;;0.55;0.55;;;-0.90;99.90;;;;;;5036512;28;20189;-80
2023/04/27 01:52:09;;;;;;;0.57;0.57;;;-0.80;99.90;;;;;;5053985;28;20193;-80
2023/04/27 01:54:35;;;;;;;0.70;0.70;;;-0.80;99.90;;;;;;5053971;28;20277;-80
2023/04/27 01:57:01;;;;;;;0.70;0.70;;;-0.90;99.90;;;;;;5054037;28;20202;-80
2023/04/27 01:59:27;;;;;;;0.68;0.68;;;-0.90;99.90;;;;;;5053400;28;20219;-81
2023/04/27 02:01:54;;;;;;;0.70;0.70;;;-0.90;99.90;;;;;;5035133;28;20309;-81
2023/04/27 02:04:19;;;;;;;0.70;0.70;;;-1.00;99.90;;;;;;5034770;28;20244;-80
2023/04/27 02:06:45;;;;;;;0.70;0.70;;;-1.00;99.90;;;;;;5042485;28;20498;-80
2023/04/27 02:09:12;;;;;;;0.70;0.70;;;-1.00;99.90;;;;;;5052271;28;20691;-80
2023/04/27 02:11:37;;;;;;;0.70;0.70;;;-1.00;99.90;;;;;;5053639;28;20271;-81
2023/04/27 02:14:03;;;;;;;0.60;0.60;;;-1.00;99.90;;;;;;5053961;28;20731;-80
2023/04/27 02:16:29;;;;;;;0.50;0.50;;;-1.00;99.90;;;;;;5048280;28;20207;-80
2023/04/27 02:18:55;;;;;;;0.65;0.65;;;-1.10;99.90;;;;;;5053672;28;20204;-80
2023/04/27 02:21:21;;;;;;;0.70;0.70;;;-1.10;99.90;;;;;;5035397;28;20731;-80
2023/04/27 02:23:47;;;;;;;0.60;0.60;;;-1.20;99.90;;;;;;5053414;28;20232;-81
2023/04/27 02:26:18;;;;;;;0.70;0.70;;;-1.20;99.90;;;;;;5053625;28;20568;-80
2023/04/27 02:28:45;;;;;;;0.60;0.60;;;-1.20;99.90;;;;;;5053332;28;20667;-81
2023/04/27 02:31:11;;;;;;;0.63;0.63;;;-1.20;99.90;;;;;;5053606;28;20284;-80
2023/04/27 02:33:36;;;;;;;0.60;0.60;;;-1.10;99.90;;;;;;5035646;28;20228;-80
2023/04/27 02:36:02;;;;;;;0.70;0.70;;;-1.10;99.90;;;;;;5046419;28;20661;-81
2023/04/27 02:38:29;;;;;;;0.70;0.70;;;-1.10;99.90;;;;;;5034873;28;20205;-81
2023/04/27 02:40:55;;;;;;;0.77;0.77;;;-1.10;99.90;;;;;;5052454;28;20668;-81
2023/04/27 02:43:21;;;;;;;0.80;0.80;;;-1.10;99.90;;;;;;5052828;28;20201;-80
2023/04/27 02:45:47;;;;;;;0.70;0.70;;;-1.10;99.90;;;;;;5053334;28;20194;-80
2023/04/27 02:48:13;;;;;;;0.80;0.80;;;-1.20;99.90;;;;;;5035379;28;20213;-80
2023/04/27 02:50:43;;;;;;;0.80;0.80;;;-1.20;99.90;;;;;;5035271;28;20209;-80
2023/04/27 02:53:10;;;;;;;0.63;0.63;;;-1.20;99.90;;;;;;5035252;28;20235;-81
2023/04/27 02:55:36;;;;;;;0.70;0.70;;;-1.20;99.90;;;;;;5035127;28;20193;-81
2023/04/27 02:58:02;;;;;;;0.70;0.70;;;-1.20;99.90;;;;;;5035448;28;20237;-81
2023/04/27 03:00:28;;;;;;;0.60;0.60;;;-1.20;99.90;;;;;;5052790;28;20258;-81
2023/04/27 03:02:55;;;;;;;0.70;0.70;;;-1.20;99.90;;;;;;5033650;28;20232;-81
2023/04/27 03:05:21;;;;;;;0.80;0.80;;;-1.20;99.90;;;;;;5034873;28;20672;-81
2023/04/27 03:07:47;;;;;;;0.60;0.60;;;-1.30;99.90;;;;;;5052915;28;20209;-80
2023/04/27 03:10:13;;;;;;;0.70;0.70;;;-1.30;99.90;;;;;;5053164;28;20190;-80
2023/04/27 03:12:38;;;;;;;0.70;0.70;;;-1.20;99.90;;;;;;5046645;28;20210;-81
2023/04/27 03:15:04;;;;;;;0.73;0.73;;;-1.20;99.90;;;;;;5014715;28;20680;-81
2023/04/27 03:17:30;;;;;;;0.80;0.80;;;-1.20;99.90;;;;;;5015060;28;20562;-81
2023/04/27 03:19:56;;;;;;;0.75;0.75;;;-1.20;99.90;;;;;;5016507;28;20194;-81
2023/04/27 03:22:22;;;;;;;0.70;0.70;;;-1.20;99.90;;;;;;5051191;28;20288;-80
2023/04/27 03:24:47;;;;;;;0.60;0.60;;;-1.10;99.90;;;;;;5056234;28;20636;-80
2023/04/27 03:27:13;;;;;;;0.80;0.80;;;-1.10;99.90;;;;;;5056139;28;20715;-80
2023/04/27 03:29:39;;;;;;;0.80;0.80;;;-1.10;99.90;;;;;;5056468;28;20194;-81
2023/04/27 03:32:05;;;;;;;0.70;0.70;;;-1.10;99.90;;;;;;5038826;28;20229;-80
2023/04/27 03:34:31;;;;;;;0.70;0.70;;;-1.10;99.90;;;;;;5038266;28;20601;-80
2023/04/27 03:36:57;;;;;;;0.80;0.80;;;-1.10;99.90;;;;;;5038769;28;20197;-80
2023/04/27 03:39:23;;;;;;;0.75;0.75;;;-1.10;99.90;;;;;;5038536;28;20224;-80
2023/04/27 03:41:48;;;;;;;0.63;0.63;;;-1.00;99.90;;;;;;5056448;28;20212;-80
2023/04/27 03:44:14;;;;;;;0.65;0.65;;;-1.00;99.90;;;;;;5056429;28;20296;-79
2023/04/27 03:46:40;;;;;;;0.75;0.75;;;-0.90;99.90;;;;;;5056233;28;20232;-80
2023/04/27 03:49:06;;;;;;;0.80;0.80;;;-0.90;99.90;;;;;;5037987;28;20194;-80
2023/04/27 03:51:32;;;;;;;0.77;0.77;;;-0.80;99.90;;;;;;5038493;28;20583;-80
2023/04/27 03:54:01;;;;;;;0.70;0.70;;;-0.90;99.90;;;;;;5038474;28;20193;-80
2023/04/27 03:56:27;;;;;;;0.90;0.90;;;-0.80;99.90;;;;;;5038453;28;20193;-80
2023/04/27 03:58:53;;;;;;;0.70;0.70;;;-0.80;99.90;;;;;;5056146;28;20622;-81
2023/04/27 04:01:18;;;;;;;0.73;0.73;;;-0.80;99.90;;;;;;5056092;28;20276;-80
2023/04/27 04:03:46;;;;;;;0.60;0.60;;;-0.70;99.90;;;;;;5037562;28;20630;-80
2023/04/27 04:06:11;;;;;;;0.80;0.80;;;-0.70;99.90;;;;;;5055965;28;20644;-82
2023/04/27 04:08:37;;;;;;;0.57;0.57;;;-0.70;99.90;;;;;;5051760;28;20300;-80
2023/04/27 04:11:03;;;;;;;0.60;0.60;;;-0.60;99.90;;;;;;5035759;28;20190;-80
2023/04/27 04:13:29;;;;;;;0.70;0.70;;;-0.60;99.90;;;;;;5017468;28;20207;-80
2023/04/27 04:16:01;;;;;;;0.63;0.63;;;-0.60;99.90;;;;;;5035712;28;20190;-81
2023/04/27 04:18:26;;;;;;;0.70;0.70;;;-0.50;99.90;;;;;;5034786;28;20302;-80
2023/04/27 04:20:52;;;;;;;0.70;0.70;;;-0.50;99.90;;;;;;5035422;28;20644;-81
2023/04/27 04:23:18;;;;;;;0.73;0.73;;;-0.40;99.90;;;;;;5034981;28;20248;-80
2023/04/27 04:25:46;;;;;;;0.60;0.60;;;-0.40;99.90;;;;;;5034645;28;20194;-81
2023/04/27 04:28:12;;;;;;;0.75;0.75;;;-0.30;99.90;;;;;;5035443;28;20198;-81
2023/04/27 04:30:39;;;;;;;0.68;0.68;;;-0.20;99.90;;;;;;5000563;28;20654;-81
2023/04/27 04:33:05;;;;;;;0.60;0.60;;;-0.20;99.90;;;;;;5033411;28;20289;-81
2023/04/27 04:35:31;;;;;;;0.60;0.60;;;-0.10;99.90;;;;;;5033754;28;20551;-82
2023/04/27 04:37:58;;;;;;;0.68;0.68;;;-0.10;99.90;;;;;;5035327;28;20653;-81
2023/04/27 04:40:24;;;;;;;0.60;0.60;;;0.00;99.90;;;;;;5035288;28;20565;-81
2023/04/27 04:42:50;;;;;;;0.80;0.80;;;0.00;99.90;;;;;;5017588;28;20659;-81
2023/04/27 04:45:16;;;;;;;0.73;0.73;;;0.10;99.90;;;;;;5035334;28;20197;-81
2023/04/27 04:47:42;;;;;;;0.70;0.70;;;0.10;99.90;;;;;;5035554;28;20598;-81
2023/04/27 04:50:11;;;;;;;0.55;0.55;;;0.10;99.90;;;;;;5035297;28;20558;-81
2023/04/27 04:52:37;;;;;;;0.70;0.70;;;0.20;99.90;;;;;;5034993;28;20210;-81
2023/04/27 04:55:04;;;;;;;0.70;0.70;;;0.30;99.90;;;;;;5041694;28;20220;-81
2023/04/27 04:57:30;;;;;;;0.65;0.65;;;0.40;99.90;;;;;;5055083;28;20197;-81
2023/04/27 04:59:57;;;;;;;0.77;0.77;;;0.50;99.90;;;;;;5054328;28;20220;-81
2023/04/27 05:02:23;;;;;;;0.60;0.60;;;0.50;99.90;;;;;;5035882;28;20719;-81
2023/04/27 05:04:50;;;;;;;0.63;0.63;;;0.60;99.90;;;;;;5054572;28;20737;-81
2023/04/27 05:07:16;;;;;;;0.80;0.80;;;0.80;99.90;;;;;;5054740;28;20221;-81
2023/04/27 05:09:42;;;;;;;0.60;0.60;;;0.90;99.90;;;;;;5054473;28;20228;-81
2023/04/27 05:12:08;;;;;;;0.60;0.60;;;1.00;99.90;;;;;;5054563;28;20720;-81
2023/04/27 05:14:34;;;;;;;0.60;0.60;;;1.10;99.90;;;;;;5054565;28;20549;-81
2023/04/27 05:17:00;;;;;;;0.60;0.60;;;1.20;99.90;;;;;;5054565;28;20207;-81
2023/04/27 05:19:28;;;;;;;0.85;0.85;;;1.40;99.90;;;;;;5054035;28;20194;-81
2023/04/27 05:21:54;;;;;;;0.88;0.88;;;1.50;99.90;;;;;;5054526;28;20232;-81
2023/04/27 05:24:20;;;;;;;0.80;0.80;;;1.60;99.90;;;;;;5036345;28;20688;-81
2023/04/27 05:26:45;;;;;;;0.60;0.60;;;1.50;99.90;;;;;;5054444;28;20209;-81
2023/04/27 05:29:11;;;;;;;0.70;0.70;;;1.50;99.90;;;;;;5054406;28;20668;-81
2023/04/27 05:31:37;;;;;;;0.70;0.70;;;1.60;99.90;;;;;;5036068;28;20201;-81
2023/04/27 05:34:03;;;;;;;0.60;0.60;;;1.60;99.90;;;;;;5036113;28;20202;-81
2023/04/27 05:36:28;;;;;;;0.60;0.60;;;1.70;99.90;;;;;;5035375;28;20696;-81
2023/04/27 05:38:55;;;;;;;0.70;0.70;;;1.70;99.90;;;;;;5034009;28;20210;-81
2023/04/27 05:41:20;;;;;;;0.70;0.70;;;1.80;99.90;;;;;;5016096;28;20198;-81
2023/04/27 05:43:46;;;;;;;0.50;0.50;;;1.80;99.90;;;;;;5034077;28;20221;-82
2023/04/27 05:46:15;;;;;;;0.70;0.70;;;1.80;99.90;;;;;;5033987;28;20273;-82
2023/04/27 05:48:41;;;;;;;0.60;0.60;;;1.90;99.90;;;;;;5016055;28;20712;-80
2023/04/27 05:51:07;;;;;;;0.60;0.60;;;2.00;99.90;;;;;;5038743;28;20190;-80
2023/04/27 05:53:33;;;;;;;0.50;0.50;;;2.00;99.90;;;;;;5053729;28;20224;-80
2023/04/27 05:56:00;;;;;;;0.60;0.60;;;2.10;99.90;;;;;;5053652;28;20567;-81
2023/04/27 05:58:26;;;;;;;0.70;0.70;;;2.10;99.90;;;;;;5053362;28;20190;-80
2023/04/27 06:00:53;;;;;;;0.70;0.70;;;2.30;99.90;;;;;;5035132;28;20543;-80
2023/04/27 06:03:19;;;;;;;0.68;0.68;;;2.50;99.90;;;;;;5035297;28;20286;-80
2023/04/27 06:05:45;;;;;;;0.70;0.70;;;2.50;99.90;;;;;;5053513;28;20566;-82
2023/04/27 06:08:11;;;;;;;0.70;0.70;;;2.60;99.90;;;;;;5053837;28;20578;-80
2023/04/27 06:10:38;;;;;;;0.68;0.68;;;2.70;99.90;;;;;;5052742;28;20190;-85
2023/04/27 06:13:03;;;;;;;0.70;0.70;;;3.00;99.90;;;;;;5035945;28;20197;-80
2023/04/27 06:15:29;;;;;;;0.70;0.70;;;3.00;99.90;;;;;;5035314;28;20197;-82
2023/04/27 06:17:55;;;;;;;0.63;0.63;;;3.10;99.90;;;;;;5053075;28;20289;-81
2023/04/27 06:20:21;;;;;;;0.63;0.63;;;3.20;99.90;;;;;;5053325;28;20292;-82
2023/04/27 06:22:47;;;;;;;0.70;0.70;;;3.30;99.90;;;;;;5035626;28;20225;-81
2023/04/27 06:25:13;;;;;;;0.60;0.60;;;3.40;99.90;;;;;;5035648;28;20252;-80
2023/04/27 06:27:38;;;;;;;0.80;0.80;;;3.40;99.90;;;;;;5052882;28;20209;-81
2023/04/27 06:30:05;;;;;;;0.65;0.65;;;3.40;99.90;;;;;;5035688;28;20541;-81
2023/04/27 06:32:31;;;;;;;0.73;0.73;;;3.50;99.90;;;;;;5052880;28;20203;-81
2023/04/27 06:34:56;;;;;;;0.70;0.70;;;3.70;99.90;;;;;;5047692;28;20198;-79
2023/04/27 06:37:22;;;;;;;0.90;0.90;;;3.70;99.90;;;;;;5015216;28;20202;-78
2023/04/27 06:39:48;;;;;;;0.65;0.65;;;3.80;99.90;;;;;;5015314;28;20202;-80
2023/04/27 06:42:13;;;;;;;0.80;0.80;;;4.00;99.90;;;;;;5033058;28;20218;-84
2023/04/27 06:44:39;;;;;;;0.60;0.60;;;4.10;99.90;;;;;;5032425;28;20202;-81
2023/04/27 06:47:05;;;;;;;1.63;1.05;;;4.20;99.90;;;;;;5035621;28;20676;-81
2023/04/27 06:49:31;;;;;;;0.70;0.70;;;4.40;99.90;;;;;;5035071;28;20197;-80
2023/04/27 06:51:56;;;;;;;0.63;0.63;;;4.50;99.90;;;;;;5052726;28;20683;-81
2023/04/27 06:54:22;;;;;;;0.68;0.68;;;4.40;99.90;;;;;;5052407;28;20664;-81
2023/04/27 06:56:48;;;;;;;0.60;0.60;;;4.60;99.90;;;;;;5053317;28;20727;-81
2023/04/27 06:59:15;;;;;;;0.70;0.70;;;4.70;99.90;;;;;;5035229;28;20591;-81
2023/04/27 07:01:41;;;;;;;0.70;0.70;;;4.80;99.90;;;;;;5034842;28;20205;-81
2023/04/27 07:04:07;;;;;;;0.80;0.80;;;4.80;99.90;;;;;;5053361;28;20587;-80
2023/04/27 07:06:34;;;;;;;0.70;0.70;;;4.70;99.90;;;;;;5052788;28;20675;-80
2023/04/27 07:08:59;;;;;;;0.70;0.70;;;4.90;99.90;;;;;;5053189;28;20209;-81
2023/04/27 07:11:25;;;;;;;0.60;0.60;;;5.00;99.90;;;;;;5052619;28;20204;-81
2023/04/27 07:13:51;;;;;;;0.70;0.70;;;5.00;99.90;;;;;;5052395;28;20193;-81
2023/04/27 07:16:22;;;;;;;0.80;0.80;;;5.10;99.90;;;;;;5052723;28;20239;-81
2023/04/27 07:18:47;;;;;;;0.80;0.80;;;5.30;99.90;;;;;;5034178;28;20657;-81
2023/04/27 07:21:13;;;;;;;0.70;0.70;;;5.50;99.90;;;;;;5052736;28;20200;-81
2023/04/27 07:23:43;;;;;;;0.70;0.70;;;5.20;99.90;;;;;;5052369;28;20213;-81
2023/04/27 07:26:09;;;;;;;0.70;0.70;;;5.30;99.90;;;;;;5034602;28;20660;-81
2023/04/27 07:28:35;;;;;;;0.80;0.80;;;5.40;99.90;;;;;;5052440;28;20286;-81
2023/04/27 07:31:04;;;;;;;0.70;0.70;;;5.70;99.90;;;;;;5034600;28;20296;-81
2023/04/27 07:33:30;;;;;;;0.60;0.60;;;6.00;99.90;;;;;;5018286;28;20677;-80
2023/04/27 07:35:55;;;;;;;0.70;0.70;;;6.10;99.90;;;;;;5039232;28;20191;-81
2023/04/27 07:38:22;;;;;;;0.80;0.80;;;6.30;99.90;;;;;;5014658;28;20209;-82
2023/04/27 07:40:48;;;;;;;0.70;0.70;;;6.10;99.90;;;;;;5014718;28;20681;-81
2023/04/27 07:43:14;;;;;;;0.70;0.70;;;5.60;99.90;;;;;;5034254;28;20191;-81
2023/04/27 07:45:41;;;;;;;0.80;0.80;;;5.50;99.90;;;;;;5034473;28;20296;-81
2023/04/27 07:48:08;;;;;;;0.70;0.70;;;5.80;99.90;;;;;;5034724;28;20218;-81
2023/04/27 07:50:34;;;;;;;0.73;0.73;;;5.90;99.90;;;;;;5034374;28;20288;-81
2023/04/27 07:53:00;;;;;;;0.80;0.80;;;6.30;99.90;;;;;;5052308;28;20285;-81
2023/04/27 07:55:25;;;;;;;0.82;0.82;;;6.30;99.90;;;;;;5052004;28;20343;-80
2023/04/27 07:57:53;;;;;;;0.80;0.80;;;6.40;99.90;;;;;;5034477;28;20676;-80
2023/04/27 08:00:19;;;;;;;0.70;0.70;;;6.20;99.90;;;;;;5052168;28;20193;-81
2023/04/27 08:02:45;;;;;;;0.70;0.70;;;6.30;99.90;;;;;;5051976;28;20331;-82
2023/04/27 08:05:10;;;;;;;0.98;0.98;;;6.80;99.90;;;;;;5052170;28;20277;-81
2023/04/27 08:07:36;;;;;;;0.70;0.70;;;6.70;99.90;;;;;;5055595;28;20197;-81
2023/04/27 08:10:02;;;;;;;0.75;0.75;;;6.30;99.90;;;;;;5037881;28;20190;-80
2023/04/27 08:12:28;;;;;;;0.68;0.68;;;5.90;99.90;;;;;;5037793;28;20307;-81
2023/04/27 08:14:54;;;;;;;0.80;0.80;;;5.80;99.90;;;;;;5055713;28;20243;-81
2023/04/27 08:17:20;;;;;;;0.60;0.60;;;5.70;99.90;;;;;;5037895;28;20198;-80
2023/04/27 08:19:46;;;;;;;0.80;0.80;;;5.60;99.90;;;;;;5055521;28;20652;-81
2023/04/27 08:22:12;;;;;;;0.70;0.70;;;5.90;99.90;;;;;;5037609;28;20202;-81
2023/04/27 08:24:38;;;;;;;0.70;0.70;;;6.20;99.90;;;;;;5037480;28;20213;-81
2023/04/27 08:27:05;;;;;;;0.70;0.70;;;6.40;99.90;;;;;;5055137;28;20202;-81
2023/04/27 08:29:31;;;;;;;0.60;0.60;;;6.40;99.90;;;;;;5054638;28;20675;-81
2023/04/27 08:31:59;;;;;;;0.70;0.70;;;6.50;99.90;;;;;;5037797;28;20301;-82
2023/04/27 08:34:25;;;;;;;0.70;0.70;;;6.60;99.90;;;;;;5036411;28;20740;-81
2023/04/27 08:36:52;;;;;;;0.70;0.70;;;6.40;99.90;;;;;;5035170;28;20190;-81
2023/04/27 08:39:17;;;;;;;0.70;0.70;;;6.00;99.90;;;;;;5017641;28;20541;-81
2023/04/27 08:41:43;;;;;;;0.70;0.70;;;5.70;99.90;;;;;;5054933;28;20268;-81
2023/04/27 08:44:09;;;;;;;0.68;0.68;;;5.70;99.90;;;;;;5055060;28;20190;-81
2023/04/27 08:46:36;;;;;;;0.65;0.65;;;5.70;99.90;;;;;;5055128;28;20201;-81
2023/04/27 08:49:02;;;;;;;0.80;0.80;;;5.80;99.90;;;;;;5054910;28;20245;-80
2023/04/27 08:51:28;;;;;;;0.68;0.68;;;6.10;99.90;;;;;;5036910;28;20237;-80
2023/04/27 08:53:56;;;;;;;0.70;0.70;;;6.50;99.90;;;;;;5054996;28;20217;-80
2023/04/27 08:56:24;;;;;;;0.70;0.70;;;6.60;99.90;;;;;;5036615;28;20566;-80
2023/04/27 08:58:50;;;;;;;0.70;0.70;;;6.60;99.90;;;;;;5037080;28;20236;-80
2023/04/27 09:01:16;;;;;;;0.68;0.68;;;6.40;99.90;;;;;;5054864;28;20201;-80
2023/04/27 09:03:45;;;;;;;0.70;0.70;;;6.30;99.90;;;;;;5054001;28;20300;-80
2023/04/27 09:06:11;;;;;;;0.80;0.80;;;6.10;99.90;;;;;;5053815;28;20194;-80
2023/04/27 09:08:47;;;;;;;0.70;0.70;;;6.10;99.90;;;;;;5054359;28;20312;-80
2023/04/27 09:11:14;;;;;;;1.30;1.20;;;6.10;99.90;;;;;;5054727;28;20626;-80
2023/04/27 09:13:43;;;;;;;0.73;0.73;;;6.20;99.90;;;;;;5036685;28;20201;-80
2023/04/27 09:16:12;;;;;;;0.60;0.60;;;6.50;99.90;;;;;;5054478;28;20185;-80
2023/04/27 09:18:41;;;;;;;0.70;0.70;;;6.70;99.90;;;;;;5035312;28;20201;-81
2023/04/27 09:21:08;;;;;;;0.70;0.70;;;6.50;99.90;;;;;;5054446;28;20197;-80
2023/04/27 09:23:36;;;;;;;0.70;0.70;;;6.30;99.90;;;;;;5054038;28;20271;-80
2023/04/27 09:26:07;;;;;;;0.70;0.70;;;6.30;99.90;;;;;;5054167;28;20248;-80
2023/04/27 09:28:36;;;;;;;0.70;0.70;;;6.60;99.90;;;;;;5035855;28;20213;-81
2023/04/27 09:31:03;;;;;;;0.60;0.60;;;6.80;99.90;;;;;;5036430;28;20281;-80
2023/04/27 09:33:33;;;;;;;0.70;0.70;;;6.90;99.90;;;;;;5035726;28;20732;-80
2023/04/27 09:36:01;;;;;;;0.60;0.60;;;6.70;99.90;;;;;;5043916;28;20565;-80
2023/04/27 09:38:28;;;;;;;0.80;0.80;;;6.50;99.90;;;;;;5053736;28;20247;-81
2023/04/27 09:40:55;;;;;;;0.77;0.77;;;5.70;99.90;;;;;;5053845;28;20246;-81
2023/04/27 09:43:22;;;;;;;0.70;0.70;;;5.60;99.90;;;;;;5053812;28;20220;-81
2023/04/27 09:45:48;;;;;;;0.70;0.70;;;5.70;99.90;;;;;;5035721;28;20562;-81
2023/04/27 09:48:15;;;;;;;0.70;0.70;;;5.80;99.90;;;;;;5054414;28;20586;-80
2023/04/27 09:50:43;;;;;;;0.70;0.70;;;6.00;99.90;;;;;;5054247;28;20561;-80
2023/04/27 09:53:15;;;;;;;0.60;0.60;;;6.10;99.90;;;;;;5053703;28;20691;-80
2023/04/27 09:56:00;;;;;;;0.70;0.70;;;6.40;99.90;;;;;;5035838;28;20217;-80
2023/04/27 09:58:45;;;;;;;0.70;0.70;;;6.80;99.90;;;;;;5035442;28;20197;-80
2023/04/27 10:01:16;;;;;;;0.70;0.70;;;7.50;99.90;;;;;;5052806;28;20194;-81
2023/04/27 10:03:57;;;;;;;0.70;0.70;;;8.00;99.90;;;;;;5052958;28;20685;-80
2023/04/27 10:07:01;;;;;;;0.60;0.60;;;7.60;99.90;;;;;;5052956;28;20201;-81
2023/04/27 10:09:33;;;;;;;0.70;0.70;;;7.60;99.90;;;;;;5053520;28;20555;-81
2023/04/27 10:12:20;;;;;;;0.70;0.70;;;7.70;99.90;;;;;;5053357;28;20221;-81
2023/04/27 10:14:57;;;;;;;0.70;0.70;;;7.70;99.90;;;;;;5015889;28;20205;-81
2023/04/27 10:17:35;;;;;;;0.70;0.70;;;7.50;99.90;;;;;;5033140;28;20240;-81
2023/04/27 10:20:03;;;;;;;0.70;0.70;;;7.50;99.90;;;;;;5033454;28;20213;-80
2023/04/27 10:22:43;;;;;;;0.70;0.70;;;7.00;99.90;;;;;;5033012;28;20241;-80
2023/04/27 10:25:16;;;;;;;0.60;0.60;;;6.70;99.90;;;;;;5033470;28;20190;-80
2023/04/27 10:27:42;;;;;;;0.70;0.70;;;6.90;99.90;;;;;;5032865;28;20501;-80
2023/04/27 10:30:10;;;;;;;0.70;0.70;;;7.90;99.90;;;;;;5032768;28;20201;-80
2023/04/27 10:32:36;;;;;;;0.70;0.70;;;9.00;99.90;;;;;;5021318;28;20668;-81
2023/04/27 10:35:06;;;;;;;0.60;0.60;;;9.20;99.90;;;;;;5052983;28;20276;-81
2023/04/27 10:37:42;;;;;;;0.70;0.70;;;8.90;99.90;;;;;;5035053;28;20212;-80
2023/04/27 10:40:19;;;;;;;0.70;0.70;;;9.00;99.90;;;;;;5052842;28;20686;-82
2023/04/27 10:42:48;;;;;;;0.70;0.70;;;9.20;99.90;;;;;;5035192;28;20213;-80
2023/04/27 10:45:25;;;;;;;0.60;0.60;;;8.60;99.90;;;;;;5035488;28;20234;-81
2023/04/27 10:47:58;;;;;;;0.70;0.70;;;9.30;99.90;;;;;;5053080;28;20212;-80
2023/04/27 10:50:24;;;;;;;0.60;0.60;;;9.30;99.90;;;;;;5052599;28;20251;-81
2023/04/27 10:52:50;;;;;;;0.70;0.70;;;9.30;99.90;;;;;;5052759;28;20201;-80
2023/04/27 10:55:17;;;;;;;0.60;0.60;;;9.70;99.90;;;;;;5052906;28;20186;-80
2023/04/27 10:57:54;;;;;;;0.70;0.70;;;10.40;99.90;;;;;;5052446;28;20644;-82
2023/04/27 11:00:26;;;;;;;0.70;0.70;;;11.00;99.90;;;;;;5034874;28;20566;-80
2023/04/27 11:02:53;;;;;;;0.60;0.60;;;10.20;99.90;;;;;;5034775;28;20229;-80
2023/04/27 11:05:22;;;;;;;0.60;0.60;;;10.30;99.90;;;;;;5052811;28;20189;-80
2023/04/27 11:07:48;;;;;;;0.60;0.60;;;10.00;99.90;;;;;;5052967;28;20579;-82
2023/04/27 11:10:18;;;;;;;0.60;0.60;;;9.30;99.90;;;;;;5052541;28;20194;-80
2023/04/27 11:12:44;;;;;;;0.60;0.60;;;8.70;99.90;;;;;;5052508;28;20190;-79
2023/04/27 11:15:11;;;;;;;0.60;0.60;;;8.00;99.90;;;;;;5052530;28;20189;-79
2023/04/27 11:17:37;;;;;;;0.70;0.70;;;7.60;99.90;;;;;;5052185;28;20190;-79
2023/04/27 11:20:09;;;;;;;0.70;0.70;;;7.20;99.90;;;;;;5052632;28;20197;-80
2023/04/27 11:22:45;;;;;;;0.70;0.70;;;6.90;99.90;;;;;;5034092;28;20206;-79
2023/04/27 11:25:11;;;;;;;0.70;0.70;;;7.20;99.90;;;;;;5052135;28;20664;-79
2023/04/27 11:27:39;;;;;;;0.60;0.60;;;7.90;99.90;;;;;;5051964;28;20201;-79
2023/04/27 11:30:06;;;;;;;0.70;0.70;;;8.80;99.90;;;;;;5052414;28;20205;-79
2023/04/27 11:32:32;;;;;;;0.60;0.60;;;9.50;99.90;;;;;;5034261;28;20198;-79
2023/04/27 11:34:58;;;;;;;0.65;0.65;;;9.30;99.90;;;;;;5030805;28;20331;-79
2023/04/27 11:37:26;;;;;;;0.60;0.60;;;8.60;99.90;;;;;;5032293;28;20260;-79
2023/04/27 11:39:53;;;;;;;0.60;0.60;;;8.30;99.90;;;;;;5046426;28;20206;-79
2023/04/27 11:42:23;;;;;;;0.60;0.60;;;8.10;99.90;;;;;;5037635;28;20201;-79
2023/04/27 11:44:57;;;;;;;0.70;0.70;;;7.90;99.90;;;;;;5038770;28;20212;-82
2023/04/27 11:47:26;;;;;;;0.60;0.60;;;7.90;99.90;;;;;;5038000;28;20213;-79
2023/04/27 11:49:55;;;;;;;0.52;0.52;;;7.90;99.90;;;;;;5056158;28;20301;-79
2023/04/27 11:52:40;;;;;;;0.73;0.73;;;7.70;99.90;;;;;;5037788;28;20247;-80
2023/04/27 11:55:07;;;;;;;0.60;0.60;;;7.60;99.90;;;;;;5055816;28;20205;-79
2023/04/27 11:57:35;;;;;;;0.70;0.70;;;7.30;99.90;;;;;;5055704;28;20685;-78
2023/04/27 12:00:13;;;;;;;0.60;0.60;;;7.40;99.90;;;;;;5055854;28;20281;-79
2023/04/27 12:02:40;;;;;;;0.60;0.60;;;7.70;99.90;;;;;;5037392;28;20275;-79
2023/04/27 12:05:06;;;;;;;0.60;0.60;;;8.70;99.90;;;;;;5055722;28;20208;-79
2023/04/27 12:07:33;;;;;;;0.60;0.60;;;9.10;99.90;;;;;;5037587;28;20209;-78
2023/04/27 12:09:58;;;;;;;0.70;0.70;;;8.80;99.90;;;;;;5038078;28;20579;-78
2023/04/27 12:12:26;;;;;;;0.60;0.60;;;8.40;99.90;;;;;;5055252;28;20201;-79
2023/04/27 12:14:52;;;;;;;0.70;0.70;;;8.10;99.90;;;;;;5055138;28;20200;-78
2023/04/27 12:17:18;;;;;;;0.82;0.82;;;8.00;99.90;;;;;;5055445;28;20194;-78
2023/04/27 12:19:43;;;;;;;0.60;0.60;;;8.00;99.90;;;;;;5037517;28;20583;-80
2023/04/27 12:22:09;;;;;;;0.57;0.57;;;8.30;99.90;;;;;;5037515;28;20201;-78
2023/04/27 12:24:36;;;;;;;0.70;0.70;;;8.90;99.90;;;;;;5055132;28;20209;-78
2023/04/27 12:27:02;;;;;;;0.70;0.70;;;8.90;99.90;;;;;;5055337;28;20204;-79
2023/04/27 12:29:28;;;;;;;0.60;0.60;;;9.50;99.90;;;;;;5037230;28;20619;-79
2023/04/27 12:31:54;;;;;;;0.60;0.60;;;10.50;99.90;;;;;;5055475;28;20197;-79
2023/04/27 12:34:20;;;;;;;0.65;0.65;;;11.20;99.90;;;;;;5054974;28;20189;-79
2023/04/27 12:36:46;;;;;;;0.60;0.60;;;12.00;99.90;;;;;;5037064;28;20215;-79
2023/04/27 12:39:17;;;;;;;0.60;0.60;;;11.80;99.90;;;;;;5055295;28;20280;-80
2023/04/27 12:41:43;;;;;;;0.52;0.52;;;11.00;99.90;;;;;;5037392;28;20194;-80
2023/04/27 12:44:11;;;;;;;0.60;0.60;;;10.30;99.90;;;;;;5055048;28;20203;-80
2023/04/27 12:46:37;;;;;;;0.60;0.60;;;9.80;99.90;;;;;;5055124;28;20189;-79
2023/04/27 12:49:05;;;;;;;0.60;0.60;;;9.50;99.90;;;;;;5054581;28;20212;-79
2023/04/27 12:51:33;;;;;;;0.60;0.60;;;9.10;99.90;;;;;;5036103;28;20204;-80